Rhinelander Oneida County Airport
KRHI : now visible

Airfield :











YOU CAN JOIN US ON...

 
LOGIN :

Register | Disclaimer

   EN    FR    IT 

 









Legend :    VFR   Marginal VFR   IFR   Intensive IFR   Very Intensive IFR
Visi :
Ceiling :
>= 8 km
>= 3000ft
5 to 8 km
1000 to 3000 ft
1500m to 5 km
500 to 1000 ft
800 to 1500m
200 to 500 ft
< 800m
< 200 ft
Symbols :   Thunderstorms  Fog  Heavy snow  Heavy precipitations  Wind > 20 kt






- Airport Elevation : 1624 ft
- IATA code : RHI


KRHI - Rhinelander Oneida County

CURRENT METAR :
  • 261253Z AUTO 22003KT 10SM OVC090 10/06 A2983 RMK AO2 SLP107 T01000061 TSNO /

EXPIRED METARs :
  • 261153Z AUTO 00000KT 10SM OVC085 10/04 A2982 RMK AO2 SLP102 60000 T01000039 10106 20094 50000 $
  • 261053Z AUTO 21004KT 10SM OVC090 10/04 A2982 RMK AO2 RAB05E15 SLP100 P0000 T01000039 $

TAF KRHI
Valid from the 26 at 12:00 until the 27 at 12:00 UTC


261132Z 2612/2712 23004KT P6SM BKN090
FM261500 22005KT P6SM BKN150
FM270500 36002KT P6SM SCT250
FM271100 04004KT 4SM BR SCT250
KZMP FIR / North America



MET'MAP, your aeronautical weather chart ! - Copyright ORBIFLY December 2007 - Disclaimer

ORBIFLY MET'MAP TEAM :

Programming & Development : Alexandra Zaïnal
Concept & original design : Baudouin d'Aumeries
Assistance for programming : Marc-Olivier Méhu
Technical & hardware support : Manuel Goepfert

Contact : metmap@orbifly.com




SOURCES & CREDITS :

   NOAA       Earth
Advisory